createdAt,value
2023-09-29T00:00:31.086Z,17.50
2023-09-29T00:02:59.853Z,17.50
2023-09-29T00:05:28.605Z,17.60
2023-09-29T00:07:59.503Z,17.50
2023-09-29T00:10:26.911Z,17.40
2023-09-29T00:12:54.277Z,17.40
2023-09-29T00:15:23.481Z,17.40
2023-09-29T00:17:50.789Z,17.40
2023-09-29T00:20:25.242Z,17.40
2023-09-29T00:22:57.895Z,17.40
2023-09-29T00:25:25.970Z,17.40
2023-09-29T00:27:54.502Z,17.40
2023-09-29T00:30:22.155Z,17.40
2023-09-29T00:32:54.365Z,17.40
2023-09-29T00:35:26.487Z,17.40
2023-09-29T00:37:58.365Z,17.30
2023-09-29T00:40:25.539Z,17.30
2023-09-29T00:42:54.188Z,17.20
2023-09-29T00:45:25.244Z,17.20
2023-09-29T00:48:07.660Z,17.10
2023-09-29T00:50:35.938Z,17.10
2023-09-29T00:53:13.221Z,17.10
2023-09-29T00:55:44.015Z,17.10
2023-09-29T00:58:14.199Z,17.10
2023-09-29T01:00:43.158Z,17.00
2023-09-29T01:03:14.437Z,17.00
2023-09-29T01:05:53.162Z,16.90
2023-09-29T01:08:22.536Z,16.90
2023-09-29T01:10:50.711Z,16.90
2023-09-29T01:13:18.126Z,16.90
2023-09-29T01:15:45.852Z,16.90
2023-09-29T01:18:13.285Z,16.80
2023-09-29T01:20:42.588Z,16.80
2023-09-29T01:23:10.356Z,16.80
2023-09-29T01:25:39.013Z,16.70
2023-09-29T01:28:11.937Z,16.70
2023-09-29T01:30:39.514Z,16.70
2023-09-29T01:33:07.169Z,16.60
2023-09-29T01:35:34.528Z,16.60
2023-09-29T01:38:02.177Z,16.60
2023-09-29T01:40:30.478Z,16.60
2023-09-29T01:42:58.924Z,16.60
2023-09-29T01:45:27.502Z,16.60
2023-09-29T01:47:56.172Z,16.60
2023-09-29T01:50:25.213Z,16.60
2023-09-29T01:52:53.770Z,16.60
2023-09-29T01:55:22.562Z,16.50
2023-09-29T01:57:51.844Z,16.60
2023-09-29T02:00:27.110Z,16.50
2023-09-29T02:02:56.188Z,16.50
2023-09-29T02:05:24.810Z,16.50
2023-09-29T02:07:54.546Z,16.50
2023-09-29T02:10:23.627Z,16.40
2023-09-29T02:13:00.364Z,16.40
2023-09-29T02:15:31.174Z,16.40
2023-09-29T02:17:59.979Z,16.40
2023-09-29T02:20:31.193Z,16.40
2023-09-29T02:23:03.732Z,16.30
2023-09-29T02:25:34.177Z,16.40
2023-09-29T02:28:01.804Z,16.30
2023-09-29T02:30:30.261Z,16.30
2023-09-29T02:33:00.056Z,16.30
2023-09-29T02:35:27.200Z,16.20
2023-09-29T02:37:54.638Z,16.30
2023-09-29T02:40:23.934Z,16.30
2023-09-29T02:42:51.619Z,16.20
2023-09-29T02:45:19.940Z,16.20
2023-09-29T02:47:49.309Z,16.20
2023-09-29T02:50:17.403Z,16.10
2023-09-29T02:52:44.658Z,16.10
2023-09-29T02:55:14.351Z,16.00
2023-09-29T02:57:43.186Z,16.00
2023-09-29T03:00:23.326Z,16.00
2023-09-29T03:02:52.835Z,16.00
2023-09-29T03:05:23.959Z,16.10
2023-09-29T03:07:55.093Z,16.00
2023-09-29T03:10:27.340Z,16.10
2023-09-29T03:12:56.493Z,16.10
2023-09-29T03:15:25.124Z,16.10
2023-09-29T03:17:57.732Z,16.10
2023-09-29T03:20:27.438Z,16.10
2023-09-29T03:22:58.906Z,16.10
2023-09-29T03:25:26.026Z,16.00
2023-09-29T03:27:54.626Z,16.10
2023-09-29T03:30:23.324Z,16.10
2023-09-29T03:32:50.628Z,16.00
2023-09-29T03:35:17.691Z,16.00
2023-09-29T03:37:47.041Z,16.00
2023-09-29T03:40:15.015Z,16.00
2023-09-29T03:42:43.878Z,16.00
2023-09-29T03:45:14.008Z,15.90
2023-09-29T03:47:41.950Z,15.90
2023-09-29T03:50:14.261Z,15.90
2023-09-29T03:52:44.382Z,15.80
2023-09-29T03:55:14.028Z,15.80
2023-09-29T03:57:44.530Z,15.80
2023-09-29T04:00:13.998Z,15.70
2023-09-29T04:02:45.050Z,15.80
2023-09-29T04:05:13.259Z,15.80
2023-09-29T04:07:41.742Z,15.70
2023-09-29T04:10:11.254Z,15.70
2023-09-29T04:12:46.316Z,15.80
2023-09-29T04:15:15.114Z,15.80
2023-09-29T04:17:42.534Z,15.70
2023-09-29T04:20:11.093Z,15.70
2023-09-29T04:22:38.619Z,15.60
2023-09-29T04:25:10.861Z,15.50
2023-09-29T04:27:38.833Z,15.50
2023-09-29T04:30:07.984Z,15.50
2023-09-29T04:32:35.441Z,15.50
2023-09-29T04:35:02.760Z,15.60
2023-09-29T04:37:30.569Z,15.50
2023-09-29T04:39:58.529Z,15.50
2023-09-29T04:42:26.069Z,15.50
2023-09-29T04:44:53.330Z,15.40
2023-09-29T04:47:21.422Z,15.40
2023-09-29T04:49:48.630Z,15.40
2023-09-29T04:52:15.881Z,15.50
2023-09-29T04:54:43.656Z,15.40
2023-09-29T04:57:10.938Z,15.50
2023-09-29T04:59:38.259Z,15.60
2023-09-29T05:02:07.139Z,15.60
2023-09-29T05:04:36.291Z,15.50
2023-09-29T05:07:03.334Z,15.50
2023-09-29T05:09:30.474Z,15.60
2023-09-29T05:11:57.486Z,15.60
2023-09-29T05:14:25.568Z,15.60
2023-09-29T05:16:54.911Z,15.50
2023-09-29T05:19:22.541Z,15.60
2023-09-29T05:21:49.562Z,15.60
2023-09-29T05:24:18.281Z,15.60
2023-09-29T05:26:47.143Z,15.60
2023-09-29T05:29:14.445Z,15.60
2023-09-29T05:31:41.879Z,15.70
2023-09-29T05:34:09.223Z,15.80
2023-09-29T05:36:37.846Z,15.80
2023-09-29T05:39:05.725Z,15.80
2023-09-29T05:41:33.127Z,15.80
2023-09-29T05:44:00.413Z,15.80
2023-09-29T05:46:28.243Z,15.90
2023-09-29T05:48:55.907Z,15.90
2023-09-29T05:51:23.085Z,15.90
2023-09-29T05:53:51.946Z,15.90
2023-09-29T05:56:20.163Z,15.80
2023-09-29T05:58:47.111Z,15.80
2023-09-29T06:01:17.889Z,15.80
2023-09-29T06:03:46.726Z,15.80
2023-09-29T06:06:14.075Z,15.80
2023-09-29T06:08:54.654Z,15.80
2023-09-29T06:11:23.367Z,15.80
2023-09-29T06:13:50.624Z,15.80
2023-09-29T06:16:17.888Z,15.80
2023-09-29T06:18:45.160Z,15.80
2023-09-29T06:21:12.652Z,15.80
2023-09-29T06:23:41.415Z,15.80
2023-09-29T06:26:09.248Z,15.90
2023-09-29T06:28:36.473Z,16.00
2023-09-29T06:31:04.179Z,16.10
2023-09-29T06:33:33.681Z,16.20
2023-09-29T06:36:02.144Z,16.30
2023-09-29T06:38:30.890Z,16.40
2023-09-29T06:41:01.227Z,16.60
2023-09-29T06:43:28.523Z,16.80
2023-09-29T06:46:01.832Z,17.10
2023-09-29T06:48:30.140Z,17.40
2023-09-29T06:51:02.060Z,17.70
2023-09-29T06:53:30.140Z,18.00
2023-09-29T06:55:59.516Z,18.30
2023-09-29T06:58:29.370Z,18.50
2023-09-29T07:01:01.011Z,18.70
2023-09-29T07:03:32.309Z,19.00
2023-09-29T07:06:01.360Z,19.10
2023-09-29T07:08:29.532Z,19.30
2023-09-29T07:10:57.271Z,19.80
2023-09-29T07:13:25.474Z,20.50
2023-09-29T07:15:52.444Z,21.30
2023-09-29T07:18:20.028Z,22.00
2023-09-29T07:20:47.144Z,22.60
2023-09-29T07:23:14.940Z,23.10
2023-09-29T07:25:42.406Z,23.50
2023-09-29T07:28:14.857Z,23.90
2023-09-29T07:30:45.981Z,24.30
2023-09-29T07:33:13.916Z,24.70
2023-09-29T07:35:43.237Z,25.00
2023-09-29T07:38:10.318Z,25.30
2023-09-29T07:40:37.550Z,25.50
2023-09-29T07:43:08.261Z,25.80
2023-09-29T07:45:35.818Z,26.00
2023-09-29T07:48:02.997Z,26.30
2023-09-29T07:50:30.163Z,26.60
2023-09-29T07:52:57.366Z,26.70
2023-09-29T07:55:24.864Z,26.90
2023-09-29T07:57:52.944Z,27.10
2023-09-29T08:00:20.976Z,27.30
2023-09-29T08:02:48.216Z,27.30
2023-09-29T08:05:15.966Z,26.80
2023-09-29T08:07:42.978Z,26.20
2023-09-29T08:10:13.533Z,25.60
2023-09-29T08:12:40.725Z,25.10
2023-09-29T08:15:10.779Z,24.70
2023-09-29T08:17:39.316Z,24.50
2023-09-29T08:20:09.790Z,24.30
2023-09-29T08:22:41.199Z,24.10
2023-09-29T08:25:12.412Z,24.10
2023-09-29T08:27:40.162Z,24.00
2023-09-29T08:30:10.799Z,24.00
2023-09-29T08:32:45.114Z,23.90
2023-09-29T08:35:15.541Z,23.80
2023-09-29T08:37:45.020Z,23.80
2023-09-29T08:40:16.047Z,23.80
2023-09-29T08:42:47.471Z,23.80
2023-09-29T08:45:14.910Z,23.80
2023-09-29T08:47:42.604Z,23.80
2023-09-29T08:50:11.826Z,23.80
2023-09-29T08:52:42.302Z,23.90
2023-09-29T08:55:10.050Z,23.90
2023-09-29T08:57:38.226Z,24.00
2023-09-29T09:00:07.371Z,24.00
2023-09-29T09:02:34.970Z,24.00
2023-09-29T09:05:02.282Z,24.00
2023-09-29T09:07:29.568Z,24.00
2023-09-29T09:09:58.729Z,24.00
2023-09-29T09:12:38.172Z,24.00
2023-09-29T09:15:07.911Z,24.00
2023-09-29T09:17:37.186Z,24.00
2023-09-29T09:20:05.281Z,24.10
2023-09-29T09:22:46.268Z,24.10
2023-09-29T09:25:15.644Z,24.10
2023-09-29T09:27:45.303Z,24.20
2023-09-29T09:30:24.914Z,24.10
2023-09-29T09:32:52.879Z,24.20
2023-09-29T09:35:28.677Z,24.20
2023-09-29T09:37:57.285Z,24.20
2023-09-29T09:40:26.345Z,24.20
2023-09-29T09:42:55.492Z,24.20
2023-09-29T09:45:26.771Z,24.20
2023-09-29T09:48:01.363Z,24.30
2023-09-29T09:50:30.242Z,24.30
2023-09-29T09:53:01.294Z,24.40
2023-09-29T09:55:43.478Z,24.40
2023-09-29T09:58:16.770Z,24.40
2023-09-29T10:00:47.230Z,24.50
2023-09-29T10:03:18.389Z,24.50
2023-09-29T10:05:55.118Z,24.50
2023-09-29T10:08:33.099Z,24.50
2023-09-29T10:11:17.056Z,24.60
2023-09-29T10:13:53.497Z,24.60
2023-09-29T10:16:27.198Z,24.60
2023-09-29T10:19:01.872Z,24.60
2023-09-29T10:21:35.490Z,24.70
2023-09-29T10:24:08.098Z,24.70
2023-09-29T10:26:50.123Z,24.70
2023-09-29T10:29:25.966Z,24.80
2023-09-29T10:31:54.375Z,24.90
2023-09-29T10:34:25.887Z,24.90
2023-09-29T10:36:58.919Z,24.90
2023-09-29T10:39:27.660Z,25.00
2023-09-29T10:42:14.156Z,25.10
2023-09-29T10:44:56.815Z,25.10
2023-09-29T10:47:37.854Z,25.10
2023-09-29T10:50:06.875Z,25.10
2023-09-29T10:52:37.823Z,25.10
2023-09-29T10:55:06.129Z,25.20
2023-09-29T10:57:34.844Z,25.20
2023-09-29T11:00:03.160Z,25.30
2023-09-29T11:02:34.823Z,25.40
2023-09-29T11:05:06.342Z,25.50
2023-09-29T11:07:53.223Z,25.60
2023-09-29T11:10:21.002Z,25.70
2023-09-29T11:12:49.576Z,25.80
2023-09-29T11:15:18.693Z,25.80
2023-09-29T11:17:48.076Z,25.90
2023-09-29T11:20:29.174Z,26.10
2023-09-29T11:23:01.197Z,26.20
2023-09-29T11:25:28.538Z,26.30
2023-09-29T11:27:56.693Z,26.40
2023-09-29T11:30:26.546Z,26.60
2023-09-29T11:32:54.408Z,26.80
2023-09-29T11:35:23.080Z,26.90
2023-09-29T11:37:51.045Z,27.10
2023-09-29T11:40:18.512Z,27.30
2023-09-29T11:42:46.825Z,27.40
2023-09-29T11:45:14.141Z,27.60
2023-09-29T11:47:42.936Z,27.70
2023-09-29T11:50:11.833Z,27.70
2023-09-29T11:52:43.660Z,27.70
2023-09-29T11:55:15.181Z,27.60
2023-09-29T11:57:42.521Z,27.60
2023-09-29T12:00:12.086Z,27.40
2023-09-29T12:02:40.739Z,27.40
2023-09-29T12:05:10.731Z,27.50
2023-09-29T12:07:38.229Z,27.70
2023-09-29T12:10:05.892Z,27.90
2023-09-29T12:12:33.977Z,27.90
2023-09-29T12:15:01.366Z,27.80
2023-09-29T12:17:29.729Z,27.80
2023-09-29T12:19:57.417Z,27.90
2023-09-29T12:22:27.922Z,28.00
2023-09-29T12:24:55.233Z,28.10
2023-09-29T12:27:22.352Z,28.20
2023-09-29T12:29:51.510Z,28.30
2023-09-29T12:32:25.436Z,28.40
2023-09-29T12:34:52.971Z,28.40
2023-09-29T12:37:21.064Z,28.40
2023-09-29T12:39:50.991Z,28.50
2023-09-29T12:42:18.573Z,28.60
2023-09-29T12:44:48.232Z,28.60
2023-09-29T12:47:15.896Z,28.70
2023-09-29T12:49:44.517Z,28.70
2023-09-29T12:52:11.714Z,28.70
2023-09-29T12:54:40.828Z,28.70
2023-09-29T12:57:08.379Z,28.50
2023-09-29T12:59:39.010Z,28.30
2023-09-29T13:02:10.754Z,28.10
2023-09-29T13:04:37.893Z,28.00
2023-09-29T13:07:10.374Z,27.90
2023-09-29T13:09:38.788Z,27.80
2023-09-29T13:12:08.457Z,27.80
2023-09-29T13:14:42.505Z,28.10
2023-09-29T13:17:10.584Z,29.40
2023-09-29T13:19:37.835Z,30.70
2023-09-29T13:22:04.927Z,31.00
2023-09-29T13:24:32.281Z,31.00
2023-09-29T13:26:59.419Z,30.80
2023-09-29T13:29:27.126Z,30.80
2023-09-29T13:31:56.526Z,31.40
2023-09-29T13:34:23.898Z,32.50
2023-09-29T13:36:52.578Z,33.90
2023-09-29T13:39:19.687Z,35.20
2023-09-29T13:41:46.751Z,36.00
2023-09-29T13:44:14.120Z,36.60
2023-09-29T13:46:56.266Z,36.60
2023-09-29T13:49:23.707Z,36.60
2023-09-29T13:51:51.004Z,36.50
2023-09-29T13:54:18.337Z,36.30
2023-09-29T13:56:46.702Z,35.80
2023-09-29T13:59:13.752Z,35.60
2023-09-29T14:01:41.159Z,35.50
2023-09-29T14:04:09.274Z,35.50
2023-09-29T14:06:36.709Z,35.40
2023-09-29T14:09:16.138Z,35.50
2023-09-29T14:11:44.510Z,35.80
2023-09-29T14:14:11.964Z,36.20
2023-09-29T14:16:39.282Z,36.40
2023-09-29T14:19:06.365Z,36.40
2023-09-29T14:21:33.498Z,36.30
2023-09-29T14:24:01.034Z,35.50
2023-09-29T14:26:31.369Z,35.10
2023-09-29T14:28:59.139Z,34.60
2023-09-29T14:31:27.913Z,34.40
2023-09-29T14:33:55.398Z,34.00
2023-09-29T14:36:23.493Z,33.70
2023-09-29T14:38:50.900Z,33.40
2023-09-29T14:41:18.298Z,32.90
2023-09-29T14:43:46.884Z,32.40
2023-09-29T14:46:17.624Z,32.10
2023-09-29T14:48:45.170Z,31.80
2023-09-29T14:51:12.435Z,31.30
2023-09-29T14:53:40.198Z,30.90
2023-09-29T14:56:08.808Z,30.50
2023-09-29T14:58:36.272Z,30.10
2023-09-29T15:01:05.117Z,29.80
2023-09-29T15:03:33.130Z,29.40
2023-09-29T15:06:01.722Z,29.10
2023-09-29T15:08:35.810Z,28.80
2023-09-29T15:11:04.209Z,28.40
2023-09-29T15:13:31.524Z,28.20
2023-09-29T15:15:59.432Z,28.00
2023-09-29T15:18:26.652Z,27.90
2023-09-29T15:20:55.637Z,27.80
2023-09-29T15:23:23.109Z,27.90
2023-09-29T15:25:55.954Z,28.00
2023-09-29T15:28:23.185Z,28.00
2023-09-29T15:30:50.615Z,27.90
2023-09-29T15:33:17.817Z,27.70
2023-09-29T15:35:51.263Z,27.50
2023-09-29T15:38:19.176Z,27.40
2023-09-29T15:40:46.507Z,27.30
2023-09-29T15:43:14.360Z,27.20
2023-09-29T15:45:42.776Z,27.10
2023-09-29T15:48:11.398Z,27.30
2023-09-29T15:50:39.401Z,27.40
2023-09-29T15:53:06.486Z,27.50
2023-09-29T15:55:34.395Z,27.30
2023-09-29T15:58:03.058Z,27.20
2023-09-29T16:00:30.477Z,27.00
2023-09-29T16:02:58.197Z,26.80
2023-09-29T16:05:25.605Z,26.60
2023-09-29T16:07:52.842Z,26.50
2023-09-29T16:10:20.448Z,26.20
2023-09-29T16:12:48.062Z,26.00
2023-09-29T16:15:15.109Z,25.80
2023-09-29T16:17:44.461Z,25.60
2023-09-29T16:20:12.630Z,25.50
2023-09-29T16:22:39.905Z,25.40
2023-09-29T16:25:07.580Z,25.30
2023-09-29T16:27:34.698Z,25.20
2023-09-29T16:30:02.042Z,25.20
2023-09-29T16:32:32.296Z,25.10
2023-09-29T16:35:03.896Z,25.00
2023-09-29T16:37:35.197Z,24.90
2023-09-29T16:40:11.821Z,24.80
2023-09-29T16:42:46.921Z,24.70
2023-09-29T16:45:15.989Z,24.70
2023-09-29T16:47:45.291Z,24.60
2023-09-29T16:50:12.816Z,24.50
2023-09-29T16:52:40.248Z,24.50
2023-09-29T16:55:07.742Z,24.50
2023-09-29T16:57:36.064Z,24.40
2023-09-29T17:00:04.972Z,24.30
2023-09-29T17:02:32.675Z,24.30
2023-09-29T17:05:01.709Z,24.30
2023-09-29T17:07:31.063Z,24.30
2023-09-29T17:09:58.412Z,24.20
2023-09-29T17:12:25.837Z,24.20
2023-09-29T17:14:54.188Z,24.20
2023-09-29T17:17:22.286Z,24.10
2023-09-29T17:19:51.452Z,24.10
2023-09-29T17:22:19.126Z,24.10
2023-09-29T17:24:46.450Z,24.00
2023-09-29T17:27:14.614Z,24.00
2023-09-29T17:29:41.720Z,23.90
2023-09-29T17:32:10.564Z,23.80
2023-09-29T17:34:40.049Z,23.70
2023-09-29T17:37:07.213Z,23.60
2023-09-29T17:39:34.663Z,23.60
2023-09-29T17:42:02.488Z,23.40
2023-09-29T17:44:30.811Z,23.40
2023-09-29T17:46:58.182Z,23.30
2023-09-29T17:49:25.539Z,23.20
2023-09-29T17:51:52.680Z,23.10
2023-09-29T17:54:20.083Z,23.00
2023-09-29T17:56:47.865Z,23.00
2023-09-29T17:59:16.093Z,22.90
2023-09-29T18:01:43.209Z,22.90
2023-09-29T18:04:11.566Z,22.80
2023-09-29T18:06:38.832Z,22.80
2023-09-29T18:09:06.856Z,22.80
2023-09-29T18:11:36.223Z,22.70
2023-09-29T18:14:03.648Z,22.70
2023-09-29T18:16:31.297Z,22.70
2023-09-29T18:18:58.818Z,22.60
2023-09-29T18:21:28.586Z,22.60
2023-09-29T18:23:57.123Z,22.60
2023-09-29T18:26:24.160Z,22.60
2023-09-29T18:28:51.554Z,22.60
2023-09-29T18:31:19.951Z,22.60
2023-09-29T18:33:47.048Z,22.60
2023-09-29T18:36:14.582Z,22.50
2023-09-29T18:38:42.199Z,22.50
2023-09-29T18:41:11.711Z,22.40
2023-09-29T18:43:38.672Z,22.40
2023-09-29T18:46:05.582Z,22.30
2023-09-29T18:48:33.231Z,22.30
2023-09-29T18:51:05.723Z,22.20
2023-09-29T18:53:32.927Z,22.00
2023-09-29T18:56:00.648Z,22.00
2023-09-29T18:58:28.426Z,21.90
2023-09-29T19:00:55.652Z,21.80
2023-09-29T19:03:23.341Z,21.80
2023-09-29T19:05:50.888Z,21.70
2023-09-29T19:08:20.074Z,21.60
2023-09-29T19:10:47.364Z,21.60
2023-09-29T19:13:14.884Z,21.50
2023-09-29T19:15:44.344Z,21.40
2023-09-29T19:18:11.792Z,21.30
2023-09-29T19:20:39.298Z,21.20
2023-09-29T19:23:06.665Z,21.20
2023-09-29T19:25:34.508Z,21.10
2023-09-29T19:28:02.197Z,21.10
2023-09-29T19:30:29.983Z,21.10
2023-09-29T19:32:58.267Z,21.10
2023-09-29T19:35:27.583Z,21.10
2023-09-29T19:37:55.667Z,21.10
2023-09-29T19:40:23.167Z,21.20
2023-09-29T19:42:50.223Z,21.20
2023-09-29T19:45:17.348Z,21.20
2023-09-29T19:47:44.957Z,21.20
2023-09-29T19:50:13.436Z,21.20
2023-09-29T19:52:42.003Z,21.20
2023-09-29T19:55:10.574Z,21.20
2023-09-29T19:57:38.359Z,21.20
2023-09-29T20:00:06.852Z,21.20
2023-09-29T20:02:39.727Z,21.20
2023-09-29T20:05:07.806Z,21.10
2023-09-29T20:07:36.310Z,21.10
2023-09-29T20:10:03.659Z,21.10
2023-09-29T20:12:30.730Z,21.10
2023-09-29T20:14:57.773Z,21.00
2023-09-29T20:17:25.817Z,20.90
2023-09-29T20:19:53.141Z,21.00
2023-09-29T20:22:21.674Z,20.90
2023-09-29T20:24:49.428Z,20.90
2023-09-29T20:27:17.181Z,20.80
2023-09-29T20:29:46.123Z,20.70
2023-09-29T20:32:13.865Z,20.70
2023-09-29T20:34:41.229Z,20.70
2023-09-29T20:37:09.045Z,20.60
2023-09-29T20:39:36.318Z,20.50
2023-09-29T20:42:04.660Z,20.40
2023-09-29T20:44:34.490Z,20.40
2023-09-29T20:47:01.496Z,20.30
2023-09-29T20:49:29.294Z,20.20
2023-09-29T20:51:56.387Z,20.20
2023-09-29T20:54:24.221Z,20.10
2023-09-29T20:56:51.223Z,20.10
2023-09-29T20:59:18.523Z,20.00
2023-09-29T21:01:45.810Z,19.90
2023-09-29T21:04:14.998Z,19.90
2023-09-29T21:06:44.348Z,19.80
2023-09-29T21:09:11.517Z,19.80
2023-09-29T21:11:38.769Z,19.70
2023-09-29T21:14:08.048Z,19.70
2023-09-29T21:16:36.031Z,19.70
2023-09-29T21:19:03.782Z,19.70
2023-09-29T21:21:30.925Z,19.70
2023-09-29T21:23:59.724Z,19.60
2023-09-29T21:26:27.313Z,19.60
2023-09-29T21:28:54.316Z,19.60
2023-09-29T21:31:28.100Z,19.50
2023-09-29T21:33:58.754Z,19.60
2023-09-29T21:36:26.516Z,19.50
2023-09-29T21:38:54.126Z,19.40
2023-09-29T21:41:21.293Z,19.40
2023-09-29T21:43:48.990Z,19.30
2023-09-29T21:46:15.994Z,19.30
2023-09-29T21:48:43.338Z,19.20
2023-09-29T21:51:10.801Z,19.10
2023-09-29T21:53:38.115Z,19.00
2023-09-29T21:56:06.317Z,19.00
2023-09-29T21:58:33.330Z,18.90
2023-09-29T22:01:00.665Z,18.80
2023-09-29T22:03:27.786Z,18.70
2023-09-29T22:05:57.500Z,18.70
2023-09-29T22:08:25.299Z,18.70
2023-09-29T22:10:52.888Z,18.70
2023-09-29T22:13:24.026Z,18.60
2023-09-29T22:15:52.767Z,18.60
2023-09-29T22:18:20.469Z,18.60
2023-09-29T22:20:48.130Z,18.60
2023-09-29T22:23:18.206Z,18.60
2023-09-29T22:25:45.771Z,18.60
2023-09-29T22:28:12.986Z,18.60
2023-09-29T22:30:40.370Z,18.50
2023-09-29T22:33:08.305Z,18.50
2023-09-29T22:35:37.478Z,18.50
2023-09-29T22:38:08.793Z,18.40
2023-09-29T22:40:35.818Z,18.40
2023-09-29T22:43:03.608Z,18.40
2023-09-29T22:45:30.997Z,18.30
2023-09-29T22:47:58.950Z,18.30
2023-09-29T22:50:27.966Z,18.30
2023-09-29T22:52:55.076Z,18.30
2023-09-29T22:55:24.189Z,18.30
2023-09-29T22:57:51.318Z,18.40
2023-09-29T23:00:18.999Z,18.40
2023-09-29T23:02:46.523Z,18.40
2023-09-29T23:05:14.139Z,18.40
2023-09-29T23:07:42.087Z,18.40
2023-09-29T23:10:12.328Z,18.40
2023-09-29T23:12:41.842Z,18.30
2023-09-29T23:15:10.316Z,18.30
2023-09-29T23:17:37.978Z,18.30
2023-09-29T23:20:11.864Z,18.30
2023-09-29T23:22:40.154Z,18.30
2023-09-29T23:25:09.233Z,18.30
2023-09-29T23:27:36.584Z,18.30
2023-09-29T23:30:05.647Z,18.30
2023-09-29T23:32:33.593Z,18.30
2023-09-29T23:35:00.981Z,18.30
2023-09-29T23:37:28.990Z,18.30
2023-09-29T23:39:56.391Z,18.30
2023-09-29T23:42:23.778Z,18.20
2023-09-29T23:44:51.055Z,18.20
2023-09-29T23:47:18.362Z,18.20
2023-09-29T23:49:45.691Z,18.20
2023-09-29T23:52:12.829Z,18.20
2023-09-29T23:54:39.983Z,18.20
2023-09-29T23:57:07.022Z,18.10
2023-09-29T23:59:34.329Z,18.10
